Lady Grace — WDF5968 — position and weather

sailwx.info

Track history (hours):
 
Tides and Currents Weather Stations Pressure Air Temp Water Temp Dewpoint Dewpoint Depression Visibility Wind Speed Wind Dir Waves Ship Positions

Lady Grace

Owner: Caldwell, William M, Hunt Valley, MD. More information available from US FCC via Universal Licensing System and Coast Guard Vessel Documentation Center.

Last reported at 2017-Oct-28 08:18 UTC. Time now 2017-Nov-21 10:22 UTC.
Position N 25°25' W 080°11'.
Warning: this ship's position is 24 days out of date.

Length 30 m; draft 2.8 m.

Type: Pleasure craft. MMSI: 367469220.

Date/timePositionNaut miles runAvg speedWind from/ knotsBaromVisibWave heightAir tempDewpointWater temp
2017-Oct-28 08:18N 25°25' W 080°11'310.7
2017-Oct-28 07:59N 25°28' W 080°10'510.8
2017-Oct-28 07:30N 25°33' W 080°08'611.1
2017-Oct-28 07:00N 25°38' W 080°07'611.5
2017-Oct-28 06:30N 25°44' W 080°07'611.5
2017-Oct-28 06:00N 25°50' W 080°06'611.5
2017-Oct-28 05:30N 25°55' W 080°06'611.7
2017-Oct-28 05:00N 26°01' W 080°06'612.0
2017-Oct-28 04:30N 26°07' W 080°05'611.6
2017-Oct-28 04:00N 26°13' W 080°05'611.5
2017-Oct-28 03:28N 26°19' W 080°04'3211.2
2017-Oct-28 00:35N 26°51' W 080°02'110.7
2017-Oct-28 00:30N 26°52' W 080°02'510.7
2017-Oct-28 00:00N 26°57' W 080°03'48510.1
2017-Oct-25 23:47N 34°32' W 076°46'311.7
2017-Oct-25 23:30N 34°35' W 076°44'611.3
2017-Oct-25 23:00N 34°39' W 076°40'5 9.5
2017-Oct-25 22:30N 34°44' W 076°41'5 9.5
2017-Oct-25 22:00N 34°49' W 076°41'4 8.5
2017-Oct-25 21:30N 34°53' W 076°41'112 4.0
2017-Oct-24 17:06N 36°43' W 076°14'0 3.6
2017-Oct-24 17:00N 36°43' W 076°15'1 0.8
2017-Oct-24 16:18N 36°44' W 076°15'1 2.7
2017-Oct-24 15:59N 36°44' W 076°16'3 5.4
2017-Oct-24 15:26N 36°47' W 076°18'2 5.6
2017-Oct-24 15:01N 36°49' W 076°17'4 7.1
2017-Oct-24 14:30N 36°52' W 076°20'119 9.7
2017-Oct-24 02:17N 38°51' W 076°24'310.2
2017-Oct-24 02:00N 38°54' W 076°24'510.0
2017-Oct-24 01:30N 38°59' W 076°23'5 9.7
2017-Oct-24 01:00N 39°04' W 076°24'510.1
2017-Oct-24 00:30N 39°09' W 076°25'510.3
2017-Oct-24 00:00N 39°12' W 076°30'510.6
2017-Oct-23 23:31N 39°16' W 076°34'2 3.3
2017-Oct-23 23:00N 39°17' W 076°36'0 0.0
2017-Oct-23 22:27N 39°17' W 076°36'0 0.0
2017-Oct-23 22:00N 39°17' W 076°36'0 0.0
2017-Oct-23 21:27N 39°17' W 076°36'0 0.0
2017-Oct-23 20:42N 39°17' W 076°36'0 0.0
2017-Oct-23 20:30N 39°17' W 076°36'0 0.0
2017-Oct-23 19:54N 39°17' W 076°36'0 0.0
2017-Oct-23 19:30N 39°17' W 076°36'0 0.0
2017-Oct-23 18:45N 39°17' W 076°36'0 0.0
2017-Oct-23 18:24N 39°17' W 076°36'0 0.0
2017-Oct-23 18:00N 39°17' W 076°36'0 0.0
2017-Oct-23 17:27N 39°17' W 076°36'0 0.0
2017-Oct-23 16:54N 39°17' W 076°36'0 0.0
2017-Oct-23 16:30N 39°17' W 076°36'0 0.0
2017-Oct-23 15:57N 39°17' W 076°36'0 0.0
2017-Oct-23 15:27N 39°17' W 076°36'0 0.0
2017-Oct-23 15:00N 39°17' W 076°36'0 0.0
2017-Oct-23 14:15N 39°17' W 076°36'0 0.0
2017-Oct-23 14:00N 39°17' W 076°36'0 0.0
2017-Oct-23 13:30N 39°17' W 076°36'0 0.0
2017-Oct-23 12:57N 39°17' W 076°36'0 0.0
2017-Oct-23 12:30N 39°17' W 076°36'0 0.0
2017-Oct-23 11:57N 39°17' W 076°36'0 0.0
2017-Oct-23 11:30N 39°17' W 076°36'0 0.0
2017-Oct-23 11:00N 39°17' W 076°36'0 0.0
2017-Oct-23 10:30N 39°17' W 076°36'0 0.0
2017-Oct-23 10:00N 39°17' W 076°36'0 0.0
2017-Oct-23 09:30N 39°17' W 076°36'0 0.0
2017-Oct-23 08:51N 39°17' W 076°36'0 0.0
2017-Oct-23 08:24N 39°17' W 076°36'0 0.0
2017-Oct-23 07:57N 39°17' W 076°36'0 0.0
2017-Oct-23 07:27N 39°17' W 076°36'0 0.0
2017-Oct-23 07:00N 39°17' W 076°36'0 0.0
2017-Oct-23 06:30N 39°17' W 076°36'0 0.0
2017-Oct-23 06:00N 39°17' W 076°36'0 0.0
2017-Oct-23 05:30N 39°17' W 076°36'0 0.0
2017-Oct-23 05:00N 39°17' W 076°36'0 0.0
2017-Oct-23 04:30N 39°17' W 076°36'0 0.0
2017-Oct-23 04:00N 39°17' W 076°36'0 0.0
2017-Oct-23 03:30N 39°17' W 076°36'0 0.0
2017-Oct-23 03:00N 39°17' W 076°36'0 0.0
2017-Oct-23 02:30N 39°17' W 076°36'0 0.0
2017-Oct-23 02:00N 39°17' W 076°36'0 0.0
2017-Oct-23 01:30N 39°17' W 076°36'0 0.0
2017-Oct-23 01:00N 39°17' W 076°36'0 0.0
2017-Oct-23 00:30N 39°17' W 076°36'0 0.0
2017-Oct-23 00:00N 39°17' W 076°36'0 0.0
2017-Oct-22 23:30N 39°17' W 076°36'0 0.0
2017-Oct-22 23:00N 39°17' W 076°36'0 0.0
2017-Oct-22 22:30N 39°17' W 076°36'0 0.0
2017-Oct-22 22:00N 39°17' W 076°36'0 0.0
2017-Oct-22 21:30N 39°17' W 076°36'0 0.0
2017-Oct-22 21:00N 39°17' W 076°36'0 0.0
2017-Oct-22 20:30N 39°17' W 076°36'0 0.0
2017-Oct-22 20:00N 39°17' W 076°36'0 0.0
2017-Oct-22 19:30N 39°17' W 076°36'0 0.0
2017-Oct-22 19:00N 39°17' W 076°36'0 0.0
2017-Oct-22 18:30N 39°17' W 076°36'0 0.0
2017-Oct-22 18:00N 39°17' W 076°36'0 0.0
2017-Oct-22 17:30N 39°17' W 076°36'0 0.0
2017-Oct-22 17:00N 39°17' W 076°36'0 0.0
2017-Oct-22 16:27N 39°17' W 076°36'0 0.0
2017-Oct-22 16:00N 39°17' W 076°36'0 0.0
2017-Oct-22 15:30N 39°17' W 076°36'0 0.0
2017-Oct-22 15:00N 39°17' W 076°36'0 0.0
2017-Oct-22 14:30N 39°17' W 076°36'0 0.0
2017-Oct-22 14:00N 39°17' W 076°36'0 0.0
2017-Oct-22 13:30N 39°17' W 076°36'0 0.0
2017-Oct-22 13:00N 39°17' W 076°36'0 0.0
2017-Oct-22 12:30N 39°17' W 076°36'0 0.0
2017-Oct-22 12:00N 39°17' W 076°36'0 0.0
2017-Oct-22 11:30N 39°17' W 076°36'0 0.0
2017-Oct-22 11:00N 39°17' W 076°36'0 0.0
2017-Oct-22 10:30N 39°17' W 076°36'0 0.0
2017-Oct-22 10:00N 39°17' W 076°36'0 0.0
2017-Oct-22 09:30N 39°17' W 076°36'0 0.0
2017-Oct-22 09:00N 39°17' W 076°36'0 0.0
2017-Oct-22 08:30N 39°17' W 076°36'0 0.0
2017-Oct-22 08:00N 39°17' W 076°36'0 0.0
2017-Oct-22 07:30N 39°17' W 076°36'0 0.0
2017-Oct-22 07:00N 39°17' W 076°36'0 0.0
2017-Oct-22 06:30N 39°17' W 076°36'0 0.0
2017-Oct-22 06:00N 39°17' W 076°36'0 0.0
2017-Oct-22 05:30N 39°17' W 076°36'0 0.0
2017-Oct-22 05:00N 39°17' W 076°36'0 0.0
2017-Oct-22 04:30N 39°17' W 076°36'0 0.0
2017-Oct-22 04:00N 39°17' W 076°36'0 0.0
2017-Oct-22 03:27N 39°17' W 076°36'0 0.0
2017-Oct-22 03:00N 39°17' W 076°36'0 0.0
2017-Oct-22 02:30N 39°17' W 076°36'0 0.0
2017-Oct-22 01:57N 39°17' W 076°36'0 0.0
2017-Oct-22 01:27N 39°17' W 076°36'0 0.0
2017-Oct-22 00:57N 39°17' W 076°36'0 0.0
2017-Oct-22 00:30N 39°17' W 076°36'0 0.0
2017-Oct-22 00:00N 39°17' W 076°36'0 0.0
2017-Oct-21 23:21N 39°17' W 076°36'0 0.0
2017-Oct-21 23:00N 39°17' W 076°36'0 0.0
2017-Oct-21 22:30N 39°17' W 076°36'0 0.0
2017-Oct-21 22:00N 39°17' W 076°36'0 0.0
2017-Oct-21 21:30N 39°17' W 076°36'0 0.0
2017-Oct-21 21:00N 39°17' W 076°36'0 0.0
2017-Oct-21 20:30N 39°17' W 076°36'0 0.0
2017-Oct-21 20:00N 39°17' W 076°36'0 0.0
2017-Oct-21 19:30N 39°17' W 076°36'0 0.0
2017-Oct-21 19:00N 39°17' W 076°36'0 0.0
2017-Oct-21 18:30N 39°17' W 076°36'0 0.0
2017-Oct-21 18:00N 39°17' W 076°36'0 0.0
2017-Oct-21 17:30N 39°17' W 076°36'0 0.0
2017-Oct-21 17:00N 39°17' W 076°36'0 0.0
2017-Oct-21 16:30N 39°17' W 076°36'0 0.0
2017-Oct-21 16:00N 39°17' W 076°36'0 0.0
2017-Oct-21 15:30N 39°17' W 076°36'0 0.0
2017-Oct-21 15:00N 39°17' W 076°36'0 0.0
2017-Oct-21 14:00N 39°17' W 076°36'0 0.0
2017-Oct-21 13:30N 39°17' W 076°36'0 0.0
2017-Oct-21 13:00N 39°17' W 076°36'0 0.0
2017-Oct-21 12:27N 39°17' W 076°36'0 0.0
2017-Oct-21 12:00N 39°17' W 076°36'0 0.0
2017-Oct-21 11:30N 39°17' W 076°36'0 0.0
2017-Oct-21 11:00N 39°17' W 076°36'0 0.0
2017-Oct-21 10:30N 39°17' W 076°36'0 0.0
2017-Oct-21 10:00N 39°17' W 076°36'0 0.0
2017-Oct-21 09:30N 39°17' W 076°36'0 0.0
2017-Oct-21 09:00N 39°17' W 076°36'0 0.0
2017-Oct-21 08:30N 39°17' W 076°36'0 0.0
2017-Oct-21 08:00N 39°17' W 076°36'0 0.0
2017-Oct-21 07:30N 39°17' W 076°36'0 0.0
2017-Oct-21 07:00N 39°17' W 076°36'0 0.0
2017-Oct-21 06:30N 39°17' W 076°36'0 0.0
2017-Oct-21 06:00N 39°17' W 076°36'0 0.0
2017-Oct-21 05:30N 39°17' W 076°36'0 0.0
2017-Oct-21 05:00N 39°17' W 076°36'0 0.0
2017-Oct-21 04:30N 39°17' W 076°36'0 0.0
2017-Oct-21 04:00N 39°17' W 076°36'0 0.0
2017-Oct-21 03:30N 39°17' W 076°36'0 0.0
2017-Oct-21 02:57N 39°17' W 076°36'0 0.0
2017-Oct-21 02:30N 39°17' W 076°36'0 0.0
2017-Oct-21 02:00N 39°17' W 076°36'0 0.0
2017-Oct-21 01:30N 39°17' W 076°36'0 0.0
2017-Oct-21 01:00N 39°17' W 076°36'0 0.0
2017-Oct-21 00:30N 39°17' W 076°36'0 0.0
2017-Oct-21 00:00N 39°17' W 076°36'0 0.0
2017-Oct-20 23:30N 39°17' W 076°36'0 0.0
2017-Oct-20 23:00N 39°17' W 076°36'0 0.0
2017-Oct-20 22:30N 39°17' W 076°36'0 0.0
2017-Oct-20 22:00N 39°17' W 076°36'0 0.0
2017-Oct-20 21:30N 39°17' W 076°36'0 0.0
2017-Oct-20 21:00N 39°17' W 076°36'0 0.0
2017-Oct-20 20:30N 39°17' W 076°36'0 0.0
2017-Oct-20 20:00N 39°17' W 076°36'0 0.1
2017-Oct-20 19:30N 39°17' W 076°36'0 0.1
2017-Oct-20 19:00N 39°17' W 076°36'0 0.0
2017-Oct-20 18:30N 39°17' W 076°36'0 0.0
2017-Oct-20 18:00N 39°17' W 076°36'0 0.0
2017-Oct-20 17:30N 39°17' W 076°36'0 0.0
2017-Oct-20 17:00N 39°17' W 076°36'0 0.0
2017-Oct-20 16:30N 39°17' W 076°36'0 0.0
2017-Oct-20 16:00N 39°17' W 076°36'0 0.0
2017-Oct-20 15:30N 39°17' W 076°36'0 0.0
2017-Oct-20 15:00N 39°17' W 076°36'0 0.0
2017-Oct-20 14:00N 39°17' W 076°36'0 0.0
2017-Oct-20 13:27N 39°17' W 076°36'0 0.0
2017-Oct-20 13:00N 39°17' W 076°36'0 0.0
2017-Oct-20 12:30N 39°17' W 076°36'0 0.0
2017-Oct-20 12:00N 39°17' W 076°36'0 0.0
2017-Oct-20 11:30N 39°17' W 076°36'0 0.0
2017-Oct-20 11:00N 39°17' W 076°36'0 0.0
2017-Oct-20 10:30N 39°17' W 076°36'0 0.0
2017-Oct-20 10:00N 39°17' W 076°36'0 0.0
2017-Oct-20 09:30N 39°17' W 076°36'0 0.0
2017-Oct-20 09:00N 39°17' W 076°36'0 0.0
2017-Oct-20 08:30N 39°17' W 076°36'0 0.0
2017-Oct-20 08:00N 39°17' W 076°36'0 0.0
2017-Oct-20 07:30N 39°17' W 076°36'0 0.0
2017-Oct-20 07:00N 39°17' W 076°36'0 0.0
2017-Oct-20 06:30N 39°17' W 076°36'0 0.0
2017-Oct-20 06:00N 39°17' W 076°36'0 0.0
2017-Oct-20 05:30N 39°17' W 076°36'0 0.0
2017-Oct-20 05:00N 39°17' W 076°36'0 0.0
2017-Oct-20 04:30N 39°17' W 076°36'0 0.0
2017-Oct-20 04:00N 39°17' W 076°36'0 0.0
2017-Oct-20 03:30N 39°17' W 076°36'0 0.0
2017-Oct-20 03:00N 39°17' W 076°36'0 0.0
2017-Oct-20 02:30N 39°17' W 076°36'0 0.0
2017-Oct-20 02:00N 39°17' W 076°36'0 0.0
2017-Oct-20 01:30N 39°17' W 076°36'0 0.0
2017-Oct-20 01:00N 39°17' W 076°36'0 0.0
2017-Oct-20 00:30N 39°17' W 076°36'0 0.0
2017-Oct-20 00:00N 39°17' W 076°36'0 0.0
2017-Oct-19 23:30N 39°17' W 076°36'0 0.0
2017-Oct-19 23:00N 39°17' W 076°36'0 0.0
2017-Oct-19 22:30N 39°17' W 076°36'0 0.0
2017-Oct-19 22:00N 39°17' W 076°36'0 0.0
2017-Oct-19 21:30N 39°17' W 076°36'0 0.0
2017-Oct-19 21:00N 39°17' W 076°36'0 0.0
2017-Oct-19 20:30N 39°17' W 076°36'0 0.0
2017-Oct-19 20:00N 39°17' W 076°36'0 0.0
2017-Oct-19 19:30N 39°17' W 076°36'0 0.0
2017-Oct-19 19:00N 39°17' W 076°36'0 0.0
2017-Oct-19 18:30N 39°17' W 076°36'0 0.0
2017-Oct-19 18:00N 39°17' W 076°36'0 0.0
2017-Oct-19 17:30N 39°17' W 076°36'0 0.0
2017-Oct-19 17:00N 39°17' W 076°36'0 0.0
2017-Oct-19 16:21N 39°17' W 076°36'0 0.0
2017-Oct-19 16:00N 39°17' W 076°36'0 0.0
2017-Oct-19 15:30N 39°17' W 076°36'0 0.0
2017-Oct-19 15:00N 39°17' W 076°36'0 0.0
2017-Oct-19 14:30N 39°17' W 076°36'0 0.0
2017-Oct-19 14:00N 39°17' W 076°36'0 0.0
2017-Oct-19 13:24N 39°17' W 076°36'0 0.0
2017-Oct-19 13:00N 39°17' W 076°36'0 0.0
2017-Oct-19 12:30N 39°17' W 076°36'0 0.0
2017-Oct-19 12:00N 39°17' W 076°36'0 0.0
2017-Oct-19 10:54N 39°17' W 076°36'0 0.0
2017-Oct-19 10:30N 39°17' W 076°36'0 0.0
2017-Oct-19 10:00N 39°17' W 076°36'0 0.0
2017-Oct-19 09:30N 39°17' W 076°36'0 0.0
2017-Oct-19 09:00N 39°17' W 076°36'0 0.0
2017-Oct-19 08:30N 39°17' W 076°36'0 0.0
2017-Oct-19 08:00N 39°17' W 076°36'0 0.0
2017-Oct-19 07:30N 39°17' W 076°36'0 0.0
2017-Oct-19 07:00N 39°17' W 076°36'0 0.0
2017-Oct-19 06:30N 39°17' W 076°36'0 0.0
2017-Oct-19 06:00N 39°17' W 076°36'0 0.0
2017-Oct-19 05:30N 39°17' W 076°36'0 0.0
2017-Oct-19 05:00N 39°17' W 076°36'0 0.1
2017-Oct-19 04:29N 39°17' W 076°36'0 0.1
2017-Oct-19 03:59N 39°17' W 076°36'0 0.0
2017-Oct-19 03:23N 39°17' W 076°36'0 0.0
2017-Oct-19 02:59N 39°17' W 076°36'0 0.0
2017-Oct-19 02:29N 39°17' W 076°36'0 0.0
2017-Oct-19 01:59N 39°17' W 076°36'0 0.0
2017-Oct-19 01:29N 39°17' W 076°36'0 0.0
2017-Oct-19 00:59N 39°17' W 076°36'0 0.0
2017-Oct-19 00:29N 39°17' W 076°36'0 0.0
2017-Oct-18 23:56N 39°17' W 076°36'0 0.0
2017-Oct-18 23:29N 39°17' W 076°36'0 0.0
2017-Oct-18 22:59N 39°17' W 076°36'0 0.0
2017-Oct-18 22:29N 39°17' W 076°36'0 0.0
2017-Oct-18 21:59N 39°17' W 076°36'0 0.0
2017-Oct-18 21:29N 39°17' W 076°36'0 0.0
2017-Oct-18 20:59N 39°17' W 076°36'0 0.0
2017-Oct-18 20:29N 39°17' W 076°36'0 0.0
2017-Oct-18 19:56N 39°17' W 076°36'0 0.0
2017-Oct-18 19:29N 39°17' W 076°36'0 0.0
2017-Oct-18 18:59N 39°17' W 076°36'0 0.0
2017-Oct-18 18:29N 39°17' W 076°36'0 0.0
2017-Oct-18 17:59N 39°17' W 076°36'0 0.0
2017-Oct-18 17:29N 39°17' W 076°36'0 0.0
2017-Oct-18 16:56N 39°17' W 076°36'0 0.0
2017-Oct-18 16:29N 39°17' W 076°36'0 0.0
2017-Oct-18 15:59N 39°17' W 076°36'0 0.0
2017-Oct-18 15:29N 39°17' W 076°36'0 0.0
2017-Oct-18 14:59N 39°17' W 076°36'0 0.0
2017-Oct-18 13:59N 39°17' W 076°36'0 0.0
2017-Oct-18 13:29N 39°17' W 076°36'0 0.0
2017-Oct-18 12:59N 39°17' W 076°36'0 0.0
2017-Oct-18 12:29N 39°17' W 076°36'0 0.0
2017-Oct-18 11:59N 39°17' W 076°36'0 0.0
2017-Oct-18 11:29N 39°17' W 076°36'0 0.0
2017-Oct-18 10:59N 39°17' W 076°36'0 0.0
2017-Oct-18 10:29N 39°17' W 076°36'0 0.0
2017-Oct-18 09:59N 39°17' W 076°36'0 0.0
2017-Oct-18 09:29N 39°17' W 076°36'0 0.0
2017-Oct-18 08:59N 39°17' W 076°36'0 0.0
2017-Oct-18 08:29N 39°17' W 076°36'  
Track history (hours):
 
Tides and Currents Weather Stations Pressure Air Temp Water Temp Dewpoint Dewpoint Depression Visibility Wind Speed Wind Dir Waves Ship Positions

Lady Grace

Owner: Caldwell, William M, Hunt Valley, MD. More information available from US FCC via Universal Licensing System and Coast Guard Vessel Documentation Center.

Last reported at 2017-Oct-28 08:18 UTC. Time now 2017-Nov-21 10:22 UTC.
Position N 25°25' W 080°11'.
Warning: this ship's position is 24 days out of date.

Length 30 m; draft 2.8 m.

Type: Pleasure craft. MMSI: 367469220.

Date/timePositionNaut miles runAvg speedWind from/ knotsBaromVisibWave heightAir tempDewpointWater temp
2017-Oct-28 08:18N 25°25' W 080°11'310.7
2017-Oct-28 07:59N 25°28' W 080°10'510.8
2017-Oct-28 07:30N 25°33' W 080°08'611.1
2017-Oct-28 07:00N 25°38' W 080°07'611.5
2017-Oct-28 06:30N 25°44' W 080°07'611.5
2017-Oct-28 06:00N 25°50' W 080°06'611.5
2017-Oct-28 05:30N 25°55' W 080°06'611.7
2017-Oct-28 05:00N 26°01' W 080°06'612.0
2017-Oct-28 04:30N 26°07' W 080°05'611.6
2017-Oct-28 04:00N 26°13' W 080°05'611.5
2017-Oct-28 03:28N 26°19' W 080°04'3211.2
2017-Oct-28 00:35N 26°51' W 080°02'110.7
2017-Oct-28 00:30N 26°52' W 080°02'510.7
2017-Oct-28 00:00N 26°57' W 080°03'48510.1
2017-Oct-25 23:47N 34°32' W 076°46'311.7
2017-Oct-25 23:30N 34°35' W 076°44'611.3
2017-Oct-25 23:00N 34°39' W 076°40'5 9.5
2017-Oct-25 22:30N 34°44' W 076°41'5 9.5
2017-Oct-25 22:00N 34°49' W 076°41'4 8.5
2017-Oct-25 21:30N 34°53' W 076°41'112 4.0
2017-Oct-24 17:06N 36°43' W 076°14'0 3.6
2017-Oct-24 17:00N 36°43' W 076°15'1 0.8
2017-Oct-24 16:18N 36°44' W 076°15'1 2.7
2017-Oct-24 15:59N 36°44' W 076°16'3 5.4
2017-Oct-24 15:26N 36°47' W 076°18'2 5.6
2017-Oct-24 15:01N 36°49' W 076°17'4 7.1
2017-Oct-24 14:30N 36°52' W 076°20'119 9.7
2017-Oct-24 02:17N 38°51' W 076°24'310.2
2017-Oct-24 02:00N 38°54' W 076°24'510.0
2017-Oct-24 01:30N 38°59' W 076°23'5 9.7
2017-Oct-24 01:00N 39°04' W 076°24'510.1
2017-Oct-24 00:30N 39°09' W 076°25'510.3
2017-Oct-24 00:00N 39°12' W 076°30'510.6
2017-Oct-23 23:31N 39°16' W 076°34'2 3.3
2017-Oct-23 23:00N 39°17' W 076°36'0 0.0
2017-Oct-23 22:27N 39°17' W 076°36'0 0.0
2017-Oct-23 22:00N 39°17' W 076°36'0 0.0
2017-Oct-23 21:27N 39°17' W 076°36'0 0.0
2017-Oct-23 20:42N 39°17' W 076°36'0 0.0
2017-Oct-23 20:30N 39°17' W 076°36'0 0.0
2017-Oct-23 19:54N 39°17' W 076°36'0 0.0
2017-Oct-23 19:30N 39°17' W 076°36'0 0.0
2017-Oct-23 18:45N 39°17' W 076°36'0 0.0
2017-Oct-23 18:24N 39°17' W 076°36'0 0.0
2017-Oct-23 18:00N 39°17' W 076°36'0 0.0
2017-Oct-23 17:27N 39°17' W 076°36'0 0.0
2017-Oct-23 16:54N 39°17' W 076°36'0 0.0
2017-Oct-23 16:30N 39°17' W 076°36'0 0.0
2017-Oct-23 15:57N 39°17' W 076°36'0 0.0
2017-Oct-23 15:27N 39°17' W 076°36'0 0.0
2017-Oct-23 15:00N 39°17' W 076°36'0 0.0
2017-Oct-23 14:15N 39°17' W 076°36'0 0.0
2017-Oct-23 14:00N 39°17' W 076°36'0 0.0
2017-Oct-23 13:30N 39°17' W 076°36'0 0.0
2017-Oct-23 12:57N 39°17' W 076°36'0 0.0
2017-Oct-23 12:30N 39°17' W 076°36'0 0.0
2017-Oct-23 11:57N 39°17' W 076°36'0 0.0
2017-Oct-23 11:30N 39°17' W 076°36'0 0.0
2017-Oct-23 11:00N 39°17' W 076°36'0 0.0
2017-Oct-23 10:30N 39°17' W 076°36'0 0.0
2017-Oct-23 10:00N 39°17' W 076°36'0 0.0
2017-Oct-23 09:30N 39°17' W 076°36'0 0.0
2017-Oct-23 08:51N 39°17' W 076°36'0 0.0
2017-Oct-23 08:24N 39°17' W 076°36'0 0.0
2017-Oct-23 07:57N 39°17' W 076°36'0 0.0
2017-Oct-23 07:27N 39°17' W 076°36'0 0.0
2017-Oct-23 07:00N 39°17' W 076°36'0 0.0
2017-Oct-23 06:30N 39°17' W 076°36'0 0.0
2017-Oct-23 06:00N 39°17' W 076°36'0 0.0
2017-Oct-23 05:30N 39°17' W 076°36'0 0.0
2017-Oct-23 05:00N 39°17' W 076°36'0 0.0
2017-Oct-23 04:30N 39°17' W 076°36'0 0.0
2017-Oct-23 04:00N 39°17' W 076°36'0 0.0
2017-Oct-23 03:30N 39°17' W 076°36'0 0.0
2017-Oct-23 03:00N 39°17' W 076°36'0 0.0
2017-Oct-23 02:30N 39°17' W 076°36'0 0.0
2017-Oct-23 02:00N 39°17' W 076°36'0 0.0
2017-Oct-23 01:30N 39°17' W 076°36'0 0.0
2017-Oct-23 01:00N 39°17' W 076°36'0 0.0
2017-Oct-23 00:30N 39°17' W 076°36'0 0.0
2017-Oct-23 00:00N 39°17' W 076°36'0 0.0
2017-Oct-22 23:30N 39°17' W 076°36'0 0.0
2017-Oct-22 23:00N 39°17' W 076°36'0 0.0
2017-Oct-22 22:30N 39°17' W 076°36'0 0.0
2017-Oct-22 22:00N 39°17' W 076°36'0 0.0
2017-Oct-22 21:30N 39°17' W 076°36'0 0.0
2017-Oct-22 21:00N 39°17' W 076°36'0 0.0
2017-Oct-22 20:30N 39°17' W 076°36'0 0.0
2017-Oct-22 20:00N 39°17' W 076°36'0 0.0
2017-Oct-22 19:30N 39°17' W 076°36'0 0.0
2017-Oct-22 19:00N 39°17' W 076°36'0 0.0
2017-Oct-22 18:30N 39°17' W 076°36'0 0.0
2017-Oct-22 18:00N 39°17' W 076°36'0 0.0
2017-Oct-22 17:30N 39°17' W 076°36'0 0.0
2017-Oct-22 17:00N 39°17' W 076°36'0 0.0
2017-Oct-22 16:27N 39°17' W 076°36'0 0.0
2017-Oct-22 16:00N 39°17' W 076°36'0 0.0
2017-Oct-22 15:30N 39°17' W 076°36'0 0.0
2017-Oct-22 15:00N 39°17' W 076°36'0 0.0
2017-Oct-22 14:30N 39°17' W 076°36'0 0.0
2017-Oct-22 14:00N 39°17' W 076°36'0 0.0
2017-Oct-22 13:30N 39°17' W 076°36'0 0.0
2017-Oct-22 13:00N 39°17' W 076°36'0 0.0
2017-Oct-22 12:30N 39°17' W 076°36'0 0.0
2017-Oct-22 12:00N 39°17' W 076°36'0 0.0
2017-Oct-22 11:30N 39°17' W 076°36'0 0.0
2017-Oct-22 11:00N 39°17' W 076°36'0 0.0
2017-Oct-22 10:30N 39°17' W 076°36'0 0.0
2017-Oct-22 10:00N 39°17' W 076°36'0 0.0
2017-Oct-22 09:30N 39°17' W 076°36'0 0.0
2017-Oct-22 09:00N 39°17' W 076°36'0 0.0
2017-Oct-22 08:30N 39°17' W 076°36'0 0.0
2017-Oct-22 08:00N 39°17' W 076°36'0 0.0
2017-Oct-22 07:30N 39°17' W 076°36'0 0.0
2017-Oct-22 07:00N 39°17' W 076°36'0 0.0
2017-Oct-22 06:30N 39°17' W 076°36'0 0.0
2017-Oct-22 06:00N 39°17' W 076°36'0 0.0
2017-Oct-22 05:30N 39°17' W 076°36'0 0.0
2017-Oct-22 05:00N 39°17' W 076°36'0 0.0
2017-Oct-22 04:30N 39°17' W 076°36'0 0.0
2017-Oct-22 04:00N 39°17' W 076°36'0 0.0
2017-Oct-22 03:27N 39°17' W 076°36'0 0.0
2017-Oct-22 03:00N 39°17' W 076°36'0 0.0
2017-Oct-22 02:30N 39°17' W 076°36'0 0.0
2017-Oct-22 01:57N 39°17' W 076°36'0 0.0
2017-Oct-22 01:27N 39°17' W 076°36'0 0.0
2017-Oct-22 00:57N 39°17' W 076°36'0 0.0
2017-Oct-22 00:30N 39°17' W 076°36'0 0.0
2017-Oct-22 00:00N 39°17' W 076°36'0 0.0
2017-Oct-21 23:21N 39°17' W 076°36'0 0.0
2017-Oct-21 23:00N 39°17' W 076°36'0 0.0
2017-Oct-21 22:30N 39°17' W 076°36'0 0.0
2017-Oct-21 22:00N 39°17' W 076°36'0 0.0
2017-Oct-21 21:30N 39°17' W 076°36'0 0.0
2017-Oct-21 21:00N 39°17' W 076°36'0 0.0
2017-Oct-21 20:30N 39°17' W 076°36'0 0.0
2017-Oct-21 20:00N 39°17' W 076°36'0 0.0
2017-Oct-21 19:30N 39°17' W 076°36'0 0.0
2017-Oct-21 19:00N 39°17' W 076°36'0 0.0
2017-Oct-21 18:30N 39°17' W 076°36'0 0.0
2017-Oct-21 18:00N 39°17' W 076°36'0 0.0
2017-Oct-21 17:30N 39°17' W 076°36'0 0.0
2017-Oct-21 17:00N 39°17' W 076°36'0 0.0
2017-Oct-21 16:30N 39°17' W 076°36'0 0.0
2017-Oct-21 16:00N 39°17' W 076°36'0 0.0
2017-Oct-21 15:30N 39°17' W 076°36'0 0.0
2017-Oct-21 15:00N 39°17' W 076°36'0 0.0
2017-Oct-21 14:00N 39°17' W 076°36'0 0.0
2017-Oct-21 13:30N 39°17' W 076°36'0 0.0
2017-Oct-21 13:00N 39°17' W 076°36'0 0.0
2017-Oct-21 12:27N 39°17' W 076°36'0 0.0
2017-Oct-21 12:00N 39°17' W 076°36'0 0.0
2017-Oct-21 11:30N 39°17' W 076°36'0 0.0
2017-Oct-21 11:00N 39°17' W 076°36'0 0.0
2017-Oct-21 10:30N 39°17' W 076°36'0 0.0
2017-Oct-21 10:00N 39°17' W 076°36'0 0.0
2017-Oct-21 09:30N 39°17' W 076°36'0 0.0
2017-Oct-21 09:00N 39°17' W 076°36'0 0.0
2017-Oct-21 08:30N 39°17' W 076°36'0 0.0
2017-Oct-21 08:00N 39°17' W 076°36'0 0.0
2017-Oct-21 07:30N 39°17' W 076°36'0 0.0
2017-Oct-21 07:00N 39°17' W 076°36'0 0.0
2017-Oct-21 06:30N 39°17' W 076°36'0 0.0
2017-Oct-21 06:00N 39°17' W 076°36'0 0.0
2017-Oct-21 05:30N 39°17' W 076°36'0 0.0
2017-Oct-21 05:00N 39°17' W 076°36'0 0.0
2017-Oct-21 04:30N 39°17' W 076°36'0 0.0
2017-Oct-21 04:00N 39°17' W 076°36'0 0.0
2017-Oct-21 03:30N 39°17' W 076°36'0 0.0
2017-Oct-21 02:57N 39°17' W 076°36'0 0.0
2017-Oct-21 02:30N 39°17' W 076°36'0 0.0
2017-Oct-21 02:00N 39°17' W 076°36'0 0.0
2017-Oct-21 01:30N 39°17' W 076°36'0 0.0
2017-Oct-21 01:00N 39°17' W 076°36'0 0.0
2017-Oct-21 00:30N 39°17' W 076°36'0 0.0
2017-Oct-21 00:00N 39°17' W 076°36'0 0.0
2017-Oct-20 23:30N 39°17' W 076°36'0 0.0
2017-Oct-20 23:00N 39°17' W 076°36'0 0.0
2017-Oct-20 22:30N 39°17' W 076°36'0 0.0
2017-Oct-20 22:00N 39°17' W 076°36'0 0.0
2017-Oct-20 21:30N 39°17' W 076°36'0 0.0
2017-Oct-20 21:00N 39°17' W 076°36'0 0.0
2017-Oct-20 20:30N 39°17' W 076°36'0 0.0
2017-Oct-20 20:00N 39°17' W 076°36'0 0.1
2017-Oct-20 19:30N 39°17' W 076°36'0 0.1
2017-Oct-20 19:00N 39°17' W 076°36'0 0.0
2017-Oct-20 18:30N 39°17' W 076°36'0 0.0
2017-Oct-20 18:00N 39°17' W 076°36'0 0.0
2017-Oct-20 17:30N 39°17' W 076°36'0 0.0
2017-Oct-20 17:00N 39°17' W 076°36'0 0.0
2017-Oct-20 16:30N 39°17' W 076°36'0 0.0
2017-Oct-20 16:00N 39°17' W 076°36'0 0.0
2017-Oct-20 15:30N 39°17' W 076°36'0 0.0
2017-Oct-20 15:00N 39°17' W 076°36'0 0.0
2017-Oct-20 14:00N 39°17' W 076°36'0 0.0
2017-Oct-20 13:27N 39°17' W 076°36'0 0.0
2017-Oct-20 13:00N 39°17' W 076°36'0 0.0
2017-Oct-20 12:30N 39°17' W 076°36'0 0.0
2017-Oct-20 12:00N 39°17' W 076°36'0 0.0
2017-Oct-20 11:30N 39°17' W 076°36'0 0.0
2017-Oct-20 11:00N 39°17' W 076°36'0 0.0
2017-Oct-20 10:30N 39°17' W 076°36'0 0.0
2017-Oct-20 10:00N 39°17' W 076°36'0 0.0
2017-Oct-20 09:30N 39°17' W 076°36'0 0.0
2017-Oct-20 09:00N 39°17' W 076°36'0 0.0
2017-Oct-20 08:30N 39°17' W 076°36'0 0.0
2017-Oct-20 08:00N 39°17' W 076°36'0 0.0
2017-Oct-20 07:30N 39°17' W 076°36'0 0.0
2017-Oct-20 07:00N 39°17' W 076°36'0 0.0
2017-Oct-20 06:30N 39°17' W 076°36'0 0.0
2017-Oct-20 06:00N 39°17' W 076°36'0 0.0
2017-Oct-20 05:30N 39°17' W 076°36'0 0.0
2017-Oct-20 05:00N 39°17' W 076°36'0 0.0
2017-Oct-20 04:30N 39°17' W 076°36'0 0.0
2017-Oct-20 04:00N 39°17' W 076°36'0 0.0
2017-Oct-20 03:30N 39°17' W 076°36'0 0.0
2017-Oct-20 03:00N 39°17' W 076°36'0 0.0
2017-Oct-20 02:30N 39°17' W 076°36'0 0.0
2017-Oct-20 02:00N 39°17' W 076°36'0 0.0
2017-Oct-20 01:30N 39°17' W 076°36'0 0.0
2017-Oct-20 01:00N 39°17' W 076°36'0 0.0
2017-Oct-20 00:30N 39°17' W 076°36'0 0.0
2017-Oct-20 00:00N 39°17' W 076°36'0 0.0
2017-Oct-19 23:30N 39°17' W 076°36'0 0.0
2017-Oct-19 23:00N 39°17' W 076°36'0 0.0
2017-Oct-19 22:30N 39°17' W 076°36'0 0.0
2017-Oct-19 22:00N 39°17' W 076°36'0 0.0
2017-Oct-19 21:30N 39°17' W 076°36'0 0.0
2017-Oct-19 21:00N 39°17' W 076°36'0 0.0
2017-Oct-19 20:30N 39°17' W 076°36'0 0.0
2017-Oct-19 20:00N 39°17' W 076°36'0 0.0
2017-Oct-19 19:30N 39°17' W 076°36'0 0.0
2017-Oct-19 19:00N 39°17' W 076°36'0 0.0
2017-Oct-19 18:30N 39°17' W 076°36'0 0.0
2017-Oct-19 18:00N 39°17' W 076°36'0 0.0
2017-Oct-19 17:30N 39°17' W 076°36'0 0.0
2017-Oct-19 17:00N 39°17' W 076°36'0 0.0
2017-Oct-19 16:21N 39°17' W 076°36'0 0.0
2017-Oct-19 16:00N 39°17' W 076°36'0 0.0
2017-Oct-19 15:30N 39°17' W 076°36'0 0.0
2017-Oct-19 15:00N 39°17' W 076°36'0 0.0
2017-Oct-19 14:30N 39°17' W 076°36'0 0.0
2017-Oct-19 14:00N 39°17' W 076°36'0 0.0
2017-Oct-19 13:24N 39°17' W 076°36'0 0.0
2017-Oct-19 13:00N 39°17' W 076°36'0 0.0
2017-Oct-19 12:30N 39°17' W 076°36'0 0.0
2017-Oct-19 12:00N 39°17' W 076°36'0 0.0
2017-Oct-19 10:54N 39°17' W 076°36'0 0.0
2017-Oct-19 10:30N 39°17' W 076°36'0 0.0
2017-Oct-19 10:00N 39°17' W 076°36'0 0.0
2017-Oct-19 09:30N 39°17' W 076°36'0 0.0
2017-Oct-19 09:00N 39°17' W 076°36'0 0.0
2017-Oct-19 08:30N 39°17' W 076°36'0 0.0
2017-Oct-19 08:00N 39°17' W 076°36'0 0.0
2017-Oct-19 07:30N 39°17' W 076°36'0 0.0
2017-Oct-19 07:00N 39°17' W 076°36'0 0.0
2017-Oct-19 06:30N 39°17' W 076°36'0 0.0
2017-Oct-19 06:00N 39°17' W 076°36'0 0.0
2017-Oct-19 05:30N 39°17' W 076°36'0 0.0
2017-Oct-19 05:00N 39°17' W 076°36'0 0.1
2017-Oct-19 04:29N 39°17' W 076°36'0 0.1
2017-Oct-19 03:59N 39°17' W 076°36'0 0.0
2017-Oct-19 03:23N 39°17' W 076°36'0 0.0
2017-Oct-19 02:59N 39°17' W 076°36'0 0.0
2017-Oct-19 02:29N 39°17' W 076°36'0 0.0
2017-Oct-19 01:59N 39°17' W 076°36'0 0.0
2017-Oct-19 01:29N 39°17' W 076°36'0 0.0
2017-Oct-19 00:59N 39°17' W 076°36'0 0.0
2017-Oct-19 00:29N 39°17' W 076°36'0 0.0
2017-Oct-18 23:56N 39°17' W 076°36'0 0.0
2017-Oct-18 23:29N 39°17' W 076°36'0 0.0
2017-Oct-18 22:59N 39°17' W 076°36'0 0.0
2017-Oct-18 22:29N 39°17' W 076°36'0 0.0
2017-Oct-18 21:59N 39°17' W 076°36'0 0.0
2017-Oct-18 21:29N 39°17' W 076°36'0 0.0
2017-Oct-18 20:59N 39°17' W 076°36'0 0.0
2017-Oct-18 20:29N 39°17' W 076°36'0 0.0
2017-Oct-18 19:56N 39°17' W 076°36'0 0.0
2017-Oct-18 19:29N 39°17' W 076°36'0 0.0
2017-Oct-18 18:59N 39°17' W 076°36'0 0.0
2017-Oct-18 18:29N 39°17' W 076°36'0 0.0
2017-Oct-18 17:59N 39°17' W 076°36'0 0.0
2017-Oct-18 17:29N 39°17' W 076°36'0 0.0
2017-Oct-18 16:56N 39°17' W 076°36'0 0.0
2017-Oct-18 16:29N 39°17' W 076°36'0 0.0
2017-Oct-18 15:59N 39°17' W 076°36'0 0.0
2017-Oct-18 15:29N 39°17' W 076°36'0 0.0
2017-Oct-18 14:59N 39°17' W 076°36'0 0.0
2017-Oct-18 13:59N 39°17' W 076°36'0 0.0
2017-Oct-18 13:29N 39°17' W 076°36'0 0.0
2017-Oct-18 12:59N 39°17' W 076°36'0 0.0
2017-Oct-18 12:29N 39°17' W 076°36'0 0.0
2017-Oct-18 11:59N 39°17' W 076°36'0 0.0
2017-Oct-18 11:29N 39°17' W 076°36'0 0.0
2017-Oct-18 10:59N 39°17' W 076°36'0 0.0
2017-Oct-18 10:29N 39°17' W 076°36'0 0.0
2017-Oct-18 09:59N 39°17' W 076°36'0 0.0
2017-Oct-18 09:29N 39°17' W 076°36'0 0.0
2017-Oct-18 08:59N 39°17' W 076°36'0 0.0
2017-Oct-18 08:29N 39°17' W 076°36'  

Dump ship's entire track history